createdAt,value
2022-10-21T00:04:11.588Z,99216.78
2022-10-21T00:06:38.104Z,99211.47
2022-10-21T00:09:04.756Z,99218.44
2022-10-21T00:11:31.370Z,99211.19
2022-10-21T00:13:57.807Z,99204.03
2022-10-21T00:16:24.360Z,99208.41
2022-10-21T00:18:50.821Z,99198.59
2022-10-21T00:21:20.677Z,99199.31
2022-10-21T00:23:47.949Z,99197.47
2022-10-21T00:26:15.337Z,99208.81
2022-10-21T00:28:41.913Z,99199.88
2022-10-21T00:31:12.975Z,99193.44
2022-10-21T00:33:39.508Z,99195.94
2022-10-21T00:36:07.630Z,99194.13
2022-10-21T00:38:34.862Z,99198.47
2022-10-21T00:41:01.583Z,99194.81
2022-10-21T00:43:28.634Z,99185.06
2022-10-21T00:46:00.179Z,99191.19
2022-10-21T00:48:35.768Z,99184.91
2022-10-21T00:51:13.243Z,99190.91
2022-10-21T00:53:42.544Z,99184.59
2022-10-21T00:56:15.590Z,99177.50
2022-10-21T00:58:43.972Z,99179.03
2022-10-21T01:01:10.856Z,99171.91
2022-10-21T01:03:37.421Z,99178.75
2022-10-21T01:06:07.606Z,99176.78
2022-10-21T01:08:34.381Z,99173.13
2022-10-21T01:11:01.487Z,99170.19
2022-10-21T01:13:27.909Z,99166.56
2022-10-21T01:15:56.860Z,99161.94
2022-10-21T01:18:42.126Z,99159.16
2022-10-21T01:21:14.654Z,99154.53
2022-10-21T01:23:47.105Z,99144.59
2022-10-21T01:26:31.753Z,99141.81
2022-10-21T01:29:24.589Z,99137.16
2022-10-21T01:32:09.690Z,99130.72
2022-10-21T01:34:36.136Z,99122.63
2022-10-21T01:37:02.534Z,99118.16
2022-10-21T01:39:35.045Z,99116.16
2022-10-21T01:44:55.153Z,99118.53
2022-10-21T01:47:29.762Z,99111.25
2022-10-21T01:49:59.884Z,99108.44
2022-10-21T01:52:27.175Z,99109.16
2022-10-21T01:54:56.310Z,99103.66
2022-10-21T01:57:24.902Z,99110.53
2022-10-21T01:59:51.950Z,99118.34
2022-10-21T02:02:20.136Z,99134.06
2022-10-21T02:04:47.838Z,99128.59
2022-10-21T02:07:14.297Z,99143.41
2022-10-21T02:09:40.739Z,99135.31
2022-10-21T02:12:07.802Z,99134.31
2022-10-21T02:14:40.403Z,99130.66
2022-10-21T02:17:09.149Z,99120.88
2022-10-21T02:19:35.569Z,99117.22
2022-10-21T02:22:04.298Z,99111.09
2022-10-21T02:24:39.135Z,99107.44
2022-10-21T02:27:05.825Z,99104.91
2022-10-21T02:29:34.579Z,99107.56
2022-10-21T02:32:11.840Z,99104.91
2022-10-21T02:34:38.221Z,99093.44
2022-10-21T02:37:17.015Z,99092.75
2022-10-21T02:39:47.980Z,99083.94
2022-10-21T02:42:16.906Z,99082.25
2022-10-21T02:44:43.480Z,99069.94
2022-10-21T02:49:41.233Z,99067.44
2022-10-21T02:52:07.870Z,99061.44
2022-10-21T02:54:34.314Z,99060.59
2022-10-21T02:57:00.864Z,99059.84
2022-10-21T02:59:27.296Z,99053.00
2022-10-21T03:01:53.753Z,99053.16
2022-10-21T03:04:20.214Z,99051.63
2022-10-21T03:06:46.679Z,99049.16
2022-10-21T03:09:13.379Z,99044.13
2022-10-21T03:11:39.826Z,99034.75
2022-10-21T03:14:06.510Z,99025.25
2022-10-21T03:16:32.987Z,99030.84
2022-10-21T03:18:59.489Z,99032.00
2022-10-21T03:21:26.055Z,99039.44
2022-10-21T03:23:52.495Z,99041.38
2022-10-21T03:26:19.133Z,99036.19
2022-10-21T03:28:45.567Z,99032.00
2022-10-21T03:31:11.992Z,99037.47
2022-10-21T03:33:38.484Z,99037.63
2022-10-21T03:36:05.304Z,99040.44
2022-10-21T03:38:31.732Z,99034.41
2022-10-21T03:40:58.148Z,99036.25
2022-10-21T03:43:24.597Z,99032.03
2022-10-21T03:45:51.105Z,99036.53
2022-10-21T03:48:18.411Z,99027.84
2022-10-21T03:50:44.814Z,99033.16
2022-10-21T03:53:24.421Z,99028.84
2022-10-21T03:55:57.247Z,99028.84
2022-10-21T03:58:25.343Z,99029.84
2022-10-21T04:00:53.009Z,99028.97
2022-10-21T04:03:19.693Z,99032.63
2022-10-21T04:05:46.136Z,99029.13
2022-10-21T04:08:12.611Z,99023.97
2022-10-21T04:10:39.117Z,99032.78
2022-10-21T04:13:05.648Z,99028.44
2022-10-21T04:15:32.123Z,99034.75
2022-10-21T04:17:58.582Z,99020.63
2022-10-21T04:20:25.097Z,99011.78
2022-10-21T04:22:51.582Z,99017.97
2022-10-21T04:25:18.167Z,99014.44
2022-10-21T04:27:44.605Z,99014.63
2022-10-21T04:30:11.207Z,99012.94
2022-10-21T04:32:38.009Z,99002.44
2022-10-21T04:35:05.009Z,99013.06
2022-10-21T04:37:31.507Z,98998.25
2022-10-21T04:39:58.036Z,98994.66
2022-10-21T04:42:24.612Z,98993.94
2022-10-21T04:44:51.162Z,98990.47
2022-10-21T04:47:17.714Z,98983.31
2022-10-21T04:49:44.152Z,98987.09
2022-10-21T04:52:10.647Z,98994.06
2022-10-21T04:54:37.170Z,98981.91
2022-10-21T04:57:04.004Z,98982.78
2022-10-21T04:59:30.497Z,98985.44
2022-10-21T05:01:56.957Z,98986.41
2022-10-21T05:04:23.540Z,98984.59
2022-10-21T05:06:49.988Z,98991.72
2022-10-21T05:09:16.739Z,98992.53
2022-10-21T05:11:43.363Z,99001.38
2022-10-21T05:14:09.807Z,98996.88
2022-10-21T05:16:36.488Z,98996.88
2022-10-21T05:19:02.919Z,99002.88
2022-10-21T05:21:29.415Z,98996.59
2022-10-21T05:23:55.918Z,98994.78
2022-10-21T05:26:24.218Z,98995.47
2022-10-21T05:28:50.707Z,98994.47
2022-10-21T05:31:17.136Z,98995.31
2022-10-21T05:33:43.604Z,98992.66
2022-10-21T05:36:10.047Z,98989.03
2022-10-21T05:38:36.656Z,98984.69
2022-10-21T05:41:03.242Z,98994.34
2022-10-21T05:43:29.794Z,98990.84
2022-10-21T05:45:56.302Z,98999.78
2022-10-21T05:48:22.855Z,99005.09
2022-10-21T05:50:52.136Z,99006.94
2022-10-21T05:53:18.639Z,99000.09
2022-10-21T05:55:45.288Z,99001.91
2022-10-21T05:58:11.774Z,99001.09
2022-10-21T06:00:38.338Z,99008.34
2022-10-21T06:03:04.813Z,99005.81
2022-10-21T06:05:31.353Z,99002.34
2022-10-21T06:07:57.815Z,99004.16
2022-10-21T06:10:28.229Z,99003.31
2022-10-21T06:12:55.638Z,99008.63
2022-10-21T06:15:22.065Z,99011.28
2022-10-21T06:17:48.639Z,99008.63
2022-10-21T06:20:15.089Z,99007.81
2022-10-21T06:22:41.628Z,99002.50
2022-10-21T06:25:08.527Z,98998.84
2022-10-21T06:27:35.275Z,99010.31
2022-10-21T06:30:01.840Z,99005.00
2022-10-21T06:32:29.206Z,98996.06
2022-10-21T06:34:55.901Z,98988.91
2022-10-21T06:37:22.351Z,98995.06
2022-10-21T06:39:48.806Z,98996.06
2022-10-21T06:42:16.203Z,99004.84
2022-10-21T06:44:42.744Z,99000.38
2022-10-21T06:47:09.210Z,99003.03
2022-10-21T06:49:35.696Z,99000.38
2022-10-21T06:52:02.132Z,99005.00
2022-10-21T06:54:28.752Z,99005.81
2022-10-21T06:56:55.401Z,99005.00
2022-10-21T06:59:22.096Z,99011.28
2022-10-21T07:01:59.660Z,99009.59
2022-10-21T07:04:27.360Z,99011.41
2022-10-21T07:06:53.807Z,99016.06
2022-10-21T07:09:20.448Z,99012.53
2022-10-21T07:11:47.069Z,99018.84
2022-10-21T07:14:13.591Z,99018.03
2022-10-21T07:16:40.031Z,99024.28
2022-10-21T07:19:06.523Z,99023.47
2022-10-21T07:21:33.497Z,99028.78
2022-10-21T07:24:00.777Z,99027.09
2022-10-21T07:26:28.311Z,99012.00
2022-10-21T07:28:54.997Z,99006.69
2022-10-21T07:31:21.910Z,99023.47
2022-10-21T07:33:49.052Z,99027.09
2022-10-21T07:36:25.806Z,99028.91
2022-10-21T07:38:53.457Z,99025.41
2022-10-21T07:41:22.114Z,99029.75
2022-10-21T07:43:48.710Z,99041.34
2022-10-21T07:46:15.612Z,99038.69
2022-10-21T07:48:42.110Z,99037.72
2022-10-21T07:51:09.994Z,99028.91
2022-10-21T07:53:36.636Z,99043.03
2022-10-21T07:56:12.057Z,99048.34
2022-10-21T07:58:38.907Z,99047.38
2022-10-21T08:01:07.109Z,99044.72
2022-10-21T08:03:33.871Z,99054.22
2022-10-21T08:06:00.788Z,99046.94
2022-10-21T08:08:28.232Z,99056.44
2022-10-21T08:10:55.278Z,99051.56
2022-10-21T08:13:22.014Z,99057.25
2022-10-21T08:15:49.983Z,99052.50
2022-10-21T08:18:16.806Z,99055.41
2022-10-21T08:20:44.675Z,99056.53
2022-10-21T08:23:12.169Z,99048.81
2022-10-21T08:25:39.356Z,99052.41
2022-10-21T08:28:06.638Z,99047.19
2022-10-21T08:30:33.484Z,99059.59
2022-10-21T08:32:59.984Z,99048.28
2022-10-21T08:35:27.510Z,99043.91
2022-10-21T08:37:54.119Z,99042.31
2022-10-21T08:40:20.689Z,99043.25
2022-10-21T08:42:47.820Z,99032.84
2022-10-21T08:45:41.271Z,99029.59
2022-10-21T08:48:13.243Z,99031.66
2022-10-21T08:50:42.719Z,99034.69
2022-10-21T08:53:14.820Z,99043.06
2022-10-21T08:55:42.851Z,99031.16
2022-10-21T08:58:16.432Z,99033.47
2022-10-21T09:00:49.028Z,99047.19
2022-10-21T09:03:23.941Z,99044.06
2022-10-21T09:06:01.791Z,99041.91
2022-10-21T09:08:34.689Z,99042.31
2022-10-21T09:11:14.119Z,99047.19
2022-10-21T09:13:55.634Z,99042.41
2022-10-21T09:16:34.338Z,99041.06
2022-10-21T09:19:00.832Z,99042.44
2022-10-21T09:21:47.147Z,99049.31
2022-10-21T09:24:24.940Z,99054.19
2022-10-21T09:26:52.935Z,99060.03
2022-10-21T09:29:25.867Z,99058.94
2022-10-21T09:31:57.300Z,99057.78
2022-10-21T09:34:40.487Z,99055.94
2022-10-21T09:37:08.458Z,99055.78
2022-10-21T09:39:37.691Z,99052.97
2022-10-21T09:42:11.488Z,99055.63
2022-10-21T09:44:40.807Z,99054.63
2022-10-21T09:47:21.898Z,99053.81
2022-10-21T09:50:06.987Z,99054.63
2022-10-21T09:52:35.948Z,99062.47
2022-10-21T09:55:03.892Z,99058.00
2022-10-21T09:57:33.889Z,99057.00
2022-10-21T10:00:01.419Z,99068.31
2022-10-21T10:02:28.227Z,99062.03
2022-10-21T10:04:54.733Z,99069.69
2022-10-21T10:07:41.416Z,99066.88
2022-10-21T10:10:26.381Z,99063.19
2022-10-21T10:12:58.132Z,99062.09
2022-10-21T10:15:32.380Z,99068.09
2022-10-21T10:18:00.014Z,99056.41
2022-10-21T10:20:26.959Z,99063.13
2022-10-21T10:23:07.975Z,99057.47
2022-10-21T10:25:36.304Z,99056.19
2022-10-21T10:28:08.826Z,99060.19
2022-10-21T10:30:41.421Z,99047.38
2022-10-21T10:33:16.021Z,99047.09
2022-10-21T10:35:47.586Z,99045.78
2022-10-21T10:38:40.395Z,99042.81
2022-10-21T10:41:15.541Z,99054.81
2022-10-21T10:43:54.890Z,99049.00
2022-10-21T10:46:32.496Z,99048.69
2022-10-21T10:49:04.545Z,99058.19
2022-10-21T10:51:35.017Z,99055.38
2022-10-21T10:54:07.763Z,99048.19
2022-10-21T10:56:52.148Z,99053.53
2022-10-21T10:59:34.646Z,99057.03
2022-10-21T11:02:10.411Z,99060.72
2022-10-21T11:04:42.065Z,99063.38
2022-10-21T11:07:14.131Z,99065.19
2022-10-21T11:09:40.720Z,99066.84
2022-10-21T11:12:15.695Z,99070.38
2022-10-21T11:14:42.331Z,99064.19
2022-10-21T11:17:16.949Z,99066.19
2022-10-21T11:19:46.383Z,99068.88
2022-10-21T11:22:13.424Z,99066.34
2022-10-21T11:24:59.679Z,99066.66
2022-10-21T11:27:33.617Z,99061.47
2022-10-21T11:30:00.174Z,99066.16
2022-10-21T11:32:26.864Z,99063.63
2022-10-21T11:35:01.247Z,99069.97
2022-10-21T11:37:34.969Z,99064.63
2022-10-21T11:40:13.830Z,99078.81
2022-10-21T11:42:42.338Z,99076.97
2022-10-21T11:45:12.218Z,99082.31
2022-10-21T11:47:46.219Z,99083.97
2022-10-21T11:50:23.657Z,99083.00
2022-10-21T11:53:12.579Z,99088.31
2022-10-21T11:55:53.544Z,99079.63
2022-10-21T11:58:22.797Z,99078.81
2022-10-21T12:00:56.131Z,99078.13
2022-10-21T12:03:22.612Z,99075.59
2022-10-21T12:05:52.249Z,99073.94
2022-10-21T12:08:27.666Z,99091.75
2022-10-21T12:11:03.429Z,99086.56
2022-10-21T12:13:32.800Z,99087.44
2022-10-21T12:16:05.526Z,99085.59
2022-10-21T12:18:33.961Z,99086.44
2022-10-21T12:21:00.959Z,99062.28
2022-10-21T12:23:29.903Z,99058.47
2022-10-21T12:26:09.706Z,99057.31
2022-10-21T12:28:39.097Z,99062.31
2022-10-21T12:31:19.059Z,99066.34
2022-10-21T12:33:47.943Z,99065.19
2022-10-21T12:36:16.679Z,99057.03
2022-10-21T12:38:56.466Z,99060.38
2022-10-21T12:41:32.236Z,99055.88
2022-10-21T12:44:01.466Z,99061.06
2022-10-21T12:46:29.659Z,99055.72
2022-10-21T12:48:56.823Z,99063.41
2022-10-21T12:51:24.675Z,99057.75
2022-10-21T12:53:55.393Z,99050.44
2022-10-21T12:56:33.822Z,99042.94
2022-10-21T12:59:06.888Z,99037.31
2022-10-21T13:01:36.656Z,99028.00
2022-10-21T13:04:03.200Z,99035.50
2022-10-21T13:06:52.922Z,99040.38
2022-10-21T13:09:37.933Z,99049.72
2022-10-21T13:12:10.372Z,99049.25
2022-10-21T13:14:47.062Z,99055.09
2022-10-21T13:17:26.962Z,99056.59
2022-10-21T13:19:54.966Z,99051.91
2022-10-21T13:22:23.327Z,99055.28
2022-10-21T13:24:50.089Z,99050.78
2022-10-21T13:27:25.603Z,99045.09
2022-10-21T13:29:52.591Z,99050.44
2022-10-21T13:32:24.712Z,99047.78
2022-10-21T13:34:51.502Z,99038.94
2022-10-21T13:37:35.373Z,99041.78
2022-10-21T13:40:07.945Z,99046.44
2022-10-21T13:42:40.573Z,99044.59
2022-10-21T13:45:14.675Z,99036.75
2022-10-21T13:47:41.419Z,99044.09
2022-10-21T13:50:13.336Z,99034.25
2022-10-21T13:52:42.553Z,99032.59
2022-10-21T13:55:17.069Z,99044.25
2022-10-21T13:57:47.214Z,99042.56
2022-10-21T14:00:40.540Z,99040.91
2022-10-21T14:03:07.338Z,99048.09
2022-10-21T14:05:46.218Z,99040.25
2022-10-21T14:08:24.681Z,99039.41
2022-10-21T14:10:51.504Z,99044.06
2022-10-21T14:13:20.633Z,99052.09
2022-10-21T14:15:48.604Z,99052.25
2022-10-21T14:18:41.407Z,99056.88
2022-10-21T14:21:13.970Z,99061.56
2022-10-21T14:23:41.906Z,99065.38
2022-10-21T14:26:08.838Z,99063.72
2022-10-21T14:28:36.819Z,99055.03
2022-10-21T14:33:34.669Z,99057.19
2022-10-21T14:36:12.676Z,99060.03
2022-10-21T14:38:43.628Z,99057.50
2022-10-21T14:41:15.600Z,99055.00
2022-10-21T14:43:43.354Z,99062.19
2022-10-21T14:46:10.460Z,99059.66
2022-10-21T14:48:45.267Z,99057.94
2022-10-21T14:51:17.627Z,99052.78
2022-10-21T14:53:46.968Z,99050.13
2022-10-21T14:56:18.191Z,99049.28
2022-10-21T14:58:47.078Z,99050.94
2022-10-21T15:01:16.958Z,99058.94
2022-10-21T15:03:47.901Z,99049.13
2022-10-21T15:06:14.433Z,99053.50
2022-10-21T15:08:56.306Z,99047.28
2022-10-21T15:11:25.876Z,99056.84
2022-10-21T15:13:59.947Z,99062.19
2022-10-21T15:16:27.849Z,99058.50
2022-10-21T15:18:54.974Z,99067.19
2022-10-21T15:21:34.978Z,99062.69
2022-10-21T15:24:02.082Z,99057.34
2022-10-21T15:26:31.670Z,99060.03
2022-10-21T15:28:58.183Z,99065.34
2022-10-21T15:31:26.358Z,99066.16
2022-10-21T15:33:53.988Z,99054.84
2022-10-21T15:36:20.926Z,99053.19
2022-10-21T15:38:47.957Z,99063.00
2022-10-21T15:41:15.922Z,99064.84
2022-10-21T15:43:43.805Z,99066.50
2022-10-21T15:46:12.020Z,99061.19
2022-10-21T15:48:38.703Z,99063.69
2022-10-21T15:51:05.240Z,99065.34
2022-10-21T15:53:31.655Z,99075.88
2022-10-21T15:56:00.357Z,99066.88
2022-10-21T15:58:26.882Z,99068.53
2022-10-21T16:00:53.495Z,99064.03
2022-10-21T16:03:20.186Z,99074.72
2022-10-21T16:05:47.425Z,99073.03
2022-10-21T16:08:13.856Z,99065.03
2022-10-21T16:10:43.817Z,99070.53
2022-10-21T16:13:10.341Z,99063.69
2022-10-21T16:15:36.939Z,99064.84
2022-10-21T16:18:03.465Z,99069.50
2022-10-21T16:20:31.083Z,99069.78
2022-10-21T16:23:00.530Z,99069.09
2022-10-21T16:25:29.505Z,99065.94
2022-10-21T16:27:56.770Z,99061.72
2022-10-21T16:30:28.641Z,99067.25
2022-10-21T16:32:55.579Z,99065.69
2022-10-21T16:35:22.087Z,99065.19
2022-10-21T16:37:49.363Z,99068.03
2022-10-21T16:40:15.822Z,99077.16
2022-10-21T16:42:42.944Z,99075.66
2022-10-21T16:45:10.013Z,99066.16
2022-10-21T16:47:37.348Z,99075.97
2022-10-21T16:50:04.617Z,99077.13
2022-10-21T16:52:33.724Z,99076.31
2022-10-21T16:55:00.239Z,99080.94
2022-10-21T16:57:26.728Z,99090.78
2022-10-21T16:59:53.179Z,99089.09
2022-10-21T17:02:20.176Z,99094.56
2022-10-21T17:04:47.264Z,99089.25
2022-10-21T17:07:14.216Z,99096.28
2022-10-21T17:09:40.690Z,99093.59
2022-10-21T17:12:09.523Z,99090.09
2022-10-21T17:17:02.440Z,99103.56
2022-10-21T17:19:28.858Z,99101.91
2022-10-21T17:21:55.335Z,99105.56
2022-10-21T17:24:21.984Z,99110.06
2022-10-21T17:26:48.479Z,99118.19
2022-10-21T17:29:15.652Z,99113.03
2022-10-21T17:31:43.416Z,99114.88
2022-10-21T17:34:20.926Z,99116.84
2022-10-21T17:36:47.559Z,99118.69
2022-10-21T17:39:14.166Z,99128.50
2022-10-21T17:41:40.724Z,99131.47
2022-10-21T17:44:07.266Z,99129.81
2022-10-21T17:46:33.688Z,99126.47
2022-10-21T17:49:00.341Z,99127.63
2022-10-21T17:51:26.996Z,99127.75
2022-10-21T17:53:54.574Z,99130.72
2022-10-21T17:56:21.291Z,99129.22
2022-10-21T17:58:51.962Z,99126.84
2022-10-21T18:01:18.804Z,99126.19
2022-10-21T18:03:45.416Z,99125.47
2022-10-21T18:06:12.326Z,99116.81
2022-10-21T18:08:39.101Z,99124.97
2022-10-21T18:11:09.775Z,99127.78
2022-10-21T18:13:37.154Z,99125.25
2022-10-21T18:16:22.281Z,99122.75
2022-10-21T18:18:49.359Z,99131.72
2022-10-21T18:21:20.255Z,99127.56
2022-10-21T18:23:47.806Z,99121.38
2022-10-21T18:26:16.155Z,99121.53
2022-10-21T18:28:42.864Z,99129.50
2022-10-21T18:31:09.287Z,99134.84
2022-10-21T18:33:35.963Z,99131.38
2022-10-21T18:36:10.045Z,99130.38
2022-10-21T18:38:36.500Z,99126.84
2022-10-21T18:41:19.658Z,99130.22
2022-10-21T18:43:48.139Z,99130.22
2022-10-21T18:46:14.772Z,99125.56
2022-10-21T18:48:41.460Z,99127.25
2022-10-21T18:51:08.681Z,99131.59
2022-10-21T18:53:35.812Z,99119.94
2022-10-21T18:56:05.900Z,99131.28
2022-10-21T18:58:33.290Z,99125.97
2022-10-21T19:01:00.038Z,99129.44
2022-10-21T19:03:26.727Z,99131.97
2022-10-21T19:05:53.503Z,99141.63
2022-10-21T19:08:20.368Z,99134.31
2022-10-21T19:10:47.355Z,99128.16
2022-10-21T19:13:14.106Z,99136.00
2022-10-21T19:15:41.559Z,99124.47
2022-10-21T19:18:11.115Z,99130.66
2022-10-21T19:20:37.581Z,99124.47
2022-10-21T19:23:04.011Z,99137.00
2022-10-21T19:25:30.437Z,99136.28
2022-10-21T19:27:56.893Z,99137.28
2022-10-21T19:30:23.460Z,99147.09
2022-10-21T19:32:49.951Z,99138.28
2022-10-21T19:35:16.638Z,99145.56
2022-10-21T19:37:43.107Z,99135.91
2022-10-21T19:40:09.718Z,99140.56
2022-10-21T19:42:37.019Z,99148.72
2022-10-21T19:45:03.810Z,99156.84
2022-10-21T19:47:31.297Z,99157.00
2022-10-21T19:49:57.969Z,99154.47
2022-10-21T19:52:24.477Z,99163.47
2022-10-21T19:54:52.476Z,99167.13
2022-10-21T19:57:18.942Z,99163.78
2022-10-21T19:59:45.673Z,99171.91
2022-10-21T20:02:12.078Z,99174.88
2022-10-21T20:04:38.537Z,99175.03
2022-10-21T20:07:05.077Z,99179.63
2022-10-21T20:09:33.891Z,99177.16
2022-10-21T20:12:02.956Z,99171.97
2022-10-21T20:14:29.505Z,99175.59
2022-10-21T20:16:55.915Z,99171.25
2022-10-21T20:19:22.401Z,99169.59
2022-10-21T20:21:49.397Z,99168.88
2022-10-21T20:24:16.459Z,99175.06
2022-10-21T20:26:44.466Z,99169.06
2022-10-21T20:29:11.370Z,99171.88
2022-10-21T20:31:37.789Z,99172.88
2022-10-21T20:34:04.282Z,99169.50
2022-10-21T20:36:35.156Z,99185.78
2022-10-21T20:39:03.054Z,99190.28
2022-10-21T20:41:33.772Z,99181.59
2022-10-21T20:44:00.921Z,99179.25
2022-10-21T20:46:27.435Z,99183.84
2022-10-21T20:48:54.542Z,99181.34
2022-10-21T20:51:22.398Z,99191.31
2022-10-21T20:53:50.336Z,99186.28
2022-10-21T20:56:16.969Z,99190.94
2022-10-21T20:58:43.543Z,99191.06
2022-10-21T21:01:10.969Z,99195.69
2022-10-21T21:03:42.719Z,99180.84
2022-10-21T21:06:10.094Z,99183.66
2022-10-21T21:08:37.376Z,99195.31
2022-10-21T21:11:04.619Z,99198.09
2022-10-21T21:13:31.565Z,99203.56
2022-10-21T21:16:10.493Z,99203.72
2022-10-21T21:18:38.178Z,99200.38
2022-10-21T21:21:04.753Z,99208.34
2022-10-21T21:23:31.373Z,99209.34
2022-10-21T21:26:09.195Z,99210.31
2022-10-21T21:28:39.086Z,99209.63
2022-10-21T21:31:06.554Z,99214.09
2022-10-21T21:33:33.276Z,99215.09
2022-10-21T21:35:59.980Z,99214.28
2022-10-21T21:38:27.608Z,99207.25
2022-10-21T21:40:54.182Z,99210.91
2022-10-21T21:43:22.246Z,99213.56
2022-10-21T21:45:48.895Z,99211.03
2022-10-21T21:50:43.750Z,99219.03
2022-10-21T21:53:11.123Z,99212.03
2022-10-21T21:55:37.783Z,99207.56
2022-10-21T21:58:04.492Z,99220.16
2022-10-21T22:00:30.980Z,99216.66
2022-10-21T22:02:57.474Z,99222.16
2022-10-21T22:05:27.053Z,99221.16
2022-10-21T22:07:53.647Z,99222.16
2022-10-21T22:10:20.212Z,99225.75
2022-10-21T22:12:46.732Z,99223.28
2022-10-21T22:15:29.696Z,99221.44
2022-10-21T22:18:00.753Z,99227.88
2022-10-21T22:20:27.249Z,99217.25
2022-10-21T22:22:53.712Z,99223.56
2022-10-21T22:25:20.191Z,99216.56
2022-10-21T22:27:46.627Z,99221.03
2022-10-21T22:30:14.426Z,99207.03
2022-10-21T22:32:41.138Z,99209.84
2022-10-21T22:35:08.578Z,99202.03
2022-10-21T22:37:35.193Z,99203.00
2022-10-21T22:40:01.672Z,99201.31
2022-10-21T22:42:28.155Z,99199.63
2022-10-21T22:44:54.580Z,99200.63
2022-10-21T22:47:23.511Z,99204.41
2022-10-21T22:49:50.463Z,99200.06
2022-10-21T22:52:17.818Z,99193.06
2022-10-21T22:54:49.616Z,99202.88
2022-10-21T22:57:16.886Z,99200.38
2022-10-21T22:59:44.295Z,99204.97
2022-10-21T23:02:11.530Z,99211.28
2022-10-21T23:04:38.022Z,99210.44
2022-10-21T23:07:04.592Z,99207.09
2022-10-21T23:09:32.288Z,99201.91
2022-10-21T23:11:58.776Z,99203.03
2022-10-21T23:14:25.408Z,99199.53
2022-10-21T23:16:52.504Z,99199.72
2022-10-21T23:19:19.303Z,99193.53
2022-10-21T23:21:45.798Z,99196.19
2022-10-21T23:24:12.281Z,99199.00
2022-10-21T23:26:38.811Z,99203.31
2022-10-21T23:29:05.712Z,99200.66
2022-10-21T23:31:32.228Z,99204.31
2022-10-21T23:33:58.845Z,99197.28
2022-10-21T23:36:25.461Z,99194.78
2022-10-21T23:38:55.556Z,99200.09
2022-10-21T23:41:22.295Z,99209.06
2022-10-21T23:43:48.815Z,99206.53
2022-10-21T23:46:15.409Z,99195.06
2022-10-21T23:48:42.087Z,99193.38
2022-10-21T23:51:08.668Z,99191.72
2022-10-21T23:53:35.307Z,99195.38
2022-10-21T23:56:01.755Z,99204.28
2022-10-21T23:58:28.229Z,99197.31
